Time;durP1;ratioP1;P1;durP2;ratioP2;P2;SDS_P1;SDS_P2;PMS_P1;PMS_P2;Temp;Humidity;BMP_temperature;BMP_pressure;BME280_temperature;BME280_humidity;BME280_pressure;Samples;Min_cycle;Max_cycle;Signal;HPM_P1;HPM_P2
2021/07/24 00:00:08;;;;;;;9.48;3.83;;;;;;;;;;5094186;28;20463;-82
2021/07/24 00:02:34;;;;;;;6.90;4.05;;;;;;;;;;5093970;28;20142;-84
2021/07/24 00:04:59;;;;;;;7.45;3.90;;;;;;;;;;5090081;28;20085;-83
2021/07/24 00:07:25;;;;;;;13.38;4.53;;;;;;;;;;5093853;28;20020;-83
2021/07/24 00:09:50;;;;;;;9.43;4.90;;;;;;;;;;5094006;28;20418;-84
2021/07/24 00:12:15;;;;;;;9.25;4.22;;;;;;;;;;5093886;28;20026;-84
2021/07/24 00:14:41;;;;;;;7.55;3.88;;;;;;;;;;5093502;28;20406;-83
2021/07/24 00:17:06;;;;;;;7.00;3.53;;;;;;;;;;5093382;28;20476;-84
2021/07/24 00:19:31;;;;;;;7.53;4.00;;;;;;;;;;5093546;28;20036;-84
2021/07/24 00:21:56;;;;;;;11.05;4.15;;;;;;;;;;5093850;28;20035;-83
2021/07/24 00:24:22;;;;;;;7.25;4.32;;;;;;;;;;5092326;28;20118;-85
2021/07/24 00:26:48;;;;;;;12.18;5.55;;;;;;;;;;5093571;28;20020;-84
2021/07/24 00:29:13;;;;;;;8.27;5.07;;;;;;;;;;5093632;28;20431;-83
2021/07/24 00:31:38;;;;;;;7.88;4.15;;;;;;;;;;5093424;28;20075;-83
2021/07/24 00:34:04;;;;;;;10.77;5.18;;;;;;;;;;5092895;28;20480;-83
2021/07/24 00:36:29;;;;;;;8.43;4.20;;;;;;;;;;5093041;28;20028;-83
2021/07/24 00:38:55;;;;;;;8.05;5.38;;;;;;;;;;5092751;28;20028;-84
2021/07/24 00:41:30;;;;;;;7.88;4.43;;;;;;;;;;5092978;28;20417;-84
2021/07/24 00:43:56;;;;;;;8.30;4.88;;;;;;;;;;5092149;28;20096;-83
2021/07/24 00:46:23;;;;;;;11.85;4.75;;;;;;;;;;5093004;28;20400;-83
2021/07/24 00:48:49;;;;;;;9.05;4.75;;;;;;;;;;5087322;28;20028;-83
2021/07/24 00:51:21;;;;;;;12.80;4.93;;;;;;;;;;5093325;28;20016;-87
2021/07/24 00:53:46;;;;;;;13.48;4.63;;;;;;;;;;5093213;28;20039;-86
2021/07/24 00:56:11;;;;;;;8.57;4.38;;;;;;;;;;5093100;28;20024;-84
2021/07/24 00:58:37;;;;;;;8.35;5.13;;;;;;;;;;5093160;28;20021;-84
2021/07/24 01:01:04;;;;;;;10.73;5.25;;;;;;;;;;5093071;28;20042;-82
2021/07/24 01:03:29;;;;;;;7.82;4.50;;;;;;;;;;5093000;28;20028;-84
2021/07/24 01:05:57;;;;;;;9.82;4.60;;;;;;;;;;5092802;28;20016;-85
2021/07/24 01:08:23;;;;;;;28.52;5.53;;;;;;;;;;5093120;28;20353;-84
2021/07/24 01:10:49;;;;;;;5.95;3.63;;;;;;;;;;5093149;28;20024;-86
2021/07/24 01:13:18;;;;;;;10.20;3.97;;;;;;;;;;5093058;28;20028;-84
2021/07/24 01:15:50;;;;;;;7.88;4.10;;;;;;;;;;5092974;28;20457;-83
2021/07/24 01:18:16;;;;;;;7.50;3.90;;;;;;;;;;5092863;28;20066;-83
2021/07/24 01:20:42;;;;;;;9.95;3.90;;;;;;;;;;5092882;28;20107;-83
2021/07/24 01:23:08;;;;;;;9.00;4.38;;;;;;;;;;5092994;28;20072;-84
2021/07/24 01:25:34;;;;;;;8.00;4.10;;;;;;;;;;5093114;28;20027;-83
2021/07/24 01:27:59;;;;;;;7.07;4.35;;;;;;;;;;5092788;28;20028;-82
2021/07/24 01:30:24;;;;;;;8.63;3.97;;;;;;;;;;5093153;28;20016;-83
2021/07/24 01:32:50;;;;;;;11.75;4.18;;;;;;;;;;5088190;28;20107;-83
2021/07/24 01:35:15;;;;;;;5.60;3.42;;;;;;;;;;5092531;28;20028;-82
2021/07/24 01:37:41;;;;;;;8.35;3.83;;;;;;;;;;5092712;28;20074;-84
2021/07/24 01:40:06;;;;;;;8.55;3.92;;;;;;;;;;5093037;28;20039;-83
2021/07/24 01:42:31;;;;;;;5.45;3.58;;;;;;;;;;5092771;28;20039;-82
2021/07/24 01:44:57;;;;;;;9.05;3.75;;;;;;;;;;5092623;28;20060;-83
2021/07/24 01:47:22;;;;;;;11.13;3.97;;;;;;;;;;5092562;28;20444;-84
2021/07/24 01:52:48;;;;;;;8.57;4.13;;;;;;;;;;5096174;28;20026;-82
2021/07/24 01:55:34;;;;;;;7.95;3.80;;;;;;;;;;5096353;28;20032;-82
2021/07/24 01:58:02;;;;;;;7.55;4.53;;;;;;;;;;5095583;28;20468;-83
2021/07/24 02:00:28;;;;;;;9.18;4.03;;;;;;;;;;5096382;28;20032;-83
2021/07/24 02:02:55;;;;;;;11.20;4.32;;;;;;;;;;5095999;28;20048;-82
2021/07/24 02:05:34;;;;;;;7.10;3.80;;;;;;;;;;5096538;28;20012;-83
2021/07/24 02:08:01;;;;;;;9.85;4.00;;;;;;;;;;5096049;28;20039;-83
2021/07/24 02:10:27;;;;;;;7.82;3.72;;;;;;;;;;5095933;28;20047;-83
2021/07/24 02:12:52;;;;;;;9.27;4.03;;;;;;;;;;5095672;28;20055;-83
2021/07/24 02:15:18;;;;;;;6.88;3.67;;;;;;;;;;5096482;28;20057;-83
2021/07/24 02:17:43;;;;;;;10.10;3.80;;;;;;;;;;5095847;28;20020;-82
2021/07/24 02:20:10;;;;;;;8.20;3.90;;;;;;;;;;5095835;28;20048;-84
2021/07/24 02:22:35;;;;;;;10.48;3.72;;;;;;;;;;5094737;28;20047;-82
2021/07/24 02:25:01;;;;;;;13.93;4.18;;;;;;;;;;5095795;28;20449;-82
2021/07/24 02:27:26;;;;;;;9.00;4.03;;;;;;;;;;5095665;28;20036;-83
2021/07/24 02:29:51;;;;;;;12.27;4.40;;;;;;;;;;5095643;28;20024;-82
2021/07/24 02:32:17;;;;;;;11.10;4.15;;;;;;;;;;5095792;28;20235;-82
2021/07/24 02:34:42;;;;;;;7.97;4.00;;;;;;;;;;5095692;28;20051;-86
2021/07/24 02:37:08;;;;;;;6.72;3.65;;;;;;;;;;5095590;28;20119;-82
2021/07/24 02:39:33;;;;;;;9.70;3.97;;;;;;;;;;5095562;28;20449;-86
2021/07/24 02:41:58;;;;;;;7.35;3.90;;;;;;;;;;5094899;28;20046;-83
2021/07/24 02:44:23;;;;;;;7.95;4.13;;;;;;;;;;5095624;28;20476;-83
2021/07/24 02:46:49;;;;;;;9.13;3.92;;;;;;;;;;5095596;28;20076;-83
2021/07/24 02:49:14;;;;;;;5.97;3.50;;;;;;;;;;5094013;28;20491;-83
2021/07/24 02:51:40;;;;;;;7.47;3.83;;;;;;;;;;5095292;28;20024;-83
2021/07/24 02:54:05;;;;;;;8.52;4.22;;;;;;;;;;5094980;28;20032;-83
2021/07/24 02:56:30;;;;;;;6.93;4.32;;;;;;;;;;5095182;28;20114;-83
2021/07/24 02:58:56;;;;;;;7.18;4.18;;;;;;;;;;5094898;28;20078;-83
2021/07/24 03:01:21;;;;;;;10.25;3.60;;;;;;;;;;5094377;28;20051;-82
2021/07/24 03:03:46;;;;;;;6.63;4.45;;;;;;;;;;5095164;28;20392;-83
2021/07/24 03:06:11;;;;;;;12.60;3.95;;;;;;;;;;5094430;28;20060;-83
2021/07/24 03:08:37;;;;;;;8.80;4.32;;;;;;;;;;5094822;28;20430;-82
2021/07/24 03:11:02;;;;;;;7.68;4.57;;;;;;;;;;5095430;28;20032;-82
2021/07/24 03:13:27;;;;;;;7.97;3.70;;;;;;;;;;5095074;28;20035;-83
2021/07/24 03:15:52;;;;;;;7.88;4.50;;;;;;;;;;5094542;28;20032;-84
2021/07/24 03:18:18;;;;;;;9.73;4.40;;;;;;;;;;5093379;28;20042;-82
2021/07/24 03:20:43;;;;;;;8.40;5.10;;;;;;;;;;5094962;28;20044;-82
2021/07/24 03:23:08;;;;;;;8.20;4.13;;;;;;;;;;5094596;28;20108;-83
2021/07/24 03:25:34;;;;;;;7.47;4.45;;;;;;;;;;5095108;28;20388;-82
2021/07/24 03:28:00;;;;;;;8.80;5.25;;;;;;;;;;5094397;28;20391;-82
2021/07/24 03:30:25;;;;;;;11.27;4.72;;;;;;;;;;5094411;28;20012;-82
2021/07/24 03:32:50;;;;;;;10.48;4.82;;;;;;;;;;5094372;28;20043;-83
2021/07/24 03:35:16;;;;;;;8.57;5.28;;;;;;;;;;5094622;28;20027;-83
2021/07/24 03:37:41;;;;;;;8.52;5.05;;;;;;;;;;5094316;28;20020;-83
2021/07/24 03:40:06;;;;;;;8.65;4.82;;;;;;;;;;5094471;28;20035;-84
2021/07/24 03:42:32;;;;;;;12.98;5.53;;;;;;;;;;5093507;28;20491;-82
2021/07/24 03:44:57;;;;;;;9.52;5.07;;;;;;;;;;5094198;28;20384;-84
2021/07/24 03:47:22;;;;;;;8.63;5.00;;;;;;;;;;5094004;28;20036;-83
2021/07/24 03:49:48;;;;;;;7.70;4.97;;;;;;;;;;5094185;28;20032;-84
2021/07/24 03:52:13;;;;;;;10.88;5.32;;;;;;;;;;5094050;28;20099;-82
2021/07/24 03:54:38;;;;;;;7.25;4.90;;;;;;;;;;5094109;28;20040;-84
2021/07/24 03:57:04;;;;;;;12.68;5.45;;;;;;;;;;5094189;28;20031;-82
2021/07/24 03:59:29;;;;;;;11.27;5.38;;;;;;;;;;5093799;28;20470;-83
2021/07/24 04:01:57;;;;;;;8.60;5.38;;;;;;;;;;5094175;28;20113;-83
2021/07/24 04:04:22;;;;;;;11.98;5.07;;;;;;;;;;5094001;28;20170;-83
2021/07/24 04:06:48;;;;;;;7.97;4.95;;;;;;;;;;5094108;28;20078;-84
2021/07/24 04:09:13;;;;;;;8.18;5.20;;;;;;;;;;5093387;28;20039;-83
2021/07/24 04:11:38;;;;;;;9.50;5.57;;;;;;;;;;5093318;28;20426;-83
2021/07/24 04:14:04;;;;;;;13.27;6.35;;;;;;;;;;5093829;28;20032;-82
2021/07/24 04:16:30;;;;;;;10.55;5.03;;;;;;;;;;5093776;28;20468;-86
2021/07/24 04:18:56;;;;;;;9.65;5.90;;;;;;;;;;5093481;28;20085;-83
2021/07/24 04:21:21;;;;;;;9.57;5.68;;;;;;;;;;5093396;28;20048;-83
2021/07/24 04:23:46;;;;;;;11.45;5.47;;;;;;;;;;5093785;28;20413;-83
2021/07/24 04:26:12;;;;;;;10.38;5.05;;;;;;;;;;5093507;28;20027;-83
2021/07/24 04:28:37;;;;;;;14.07;5.93;;;;;;;;;;5093571;28;20103;-82
2021/07/24 04:31:02;;;;;;;12.18;4.75;;;;;;;;;;5093535;28;20105;-84
2021/07/24 04:33:28;;;;;;;11.13;5.25;;;;;;;;;;5093529;28;20043;-83
2021/07/24 04:35:53;;;;;;;8.70;5.15;;;;;;;;;;5093318;28;20031;-82
2021/07/24 04:38:18;;;;;;;13.02;5.28;;;;;;;;;;5093589;28;20525;-83
2021/07/24 04:40:47;;;;;;;10.75;4.90;;;;;;;;;;5093201;28;20453;-83
2021/07/24 04:43:13;;;;;;;11.80;4.93;;;;;;;;;;5093355;28;20099;-83
2021/07/24 04:45:42;;;;;;;11.05;4.70;;;;;;;;;;5093073;28;20509;-84
2021/07/24 04:48:07;;;;;;;13.02;5.03;;;;;;;;;;5093071;28;20569;-83
2021/07/24 04:50:32;;;;;;;9.90;4.57;;;;;;;;;;5093209;28;20020;-84
2021/07/24 04:52:58;;;;;;;8.27;4.35;;;;;;;;;;5092945;28;20044;-83
2021/07/24 04:55:24;;;;;;;11.43;4.15;;;;;;;;;;5093101;28;20028;-83
2021/07/24 04:57:50;;;;;;;8.68;4.20;;;;;;;;;;5093283;28;20348;-85
2021/07/24 05:00:16;;;;;;;7.55;4.47;;;;;;;;;;5093015;28;20032;-83
2021/07/24 05:02:45;;;;;;;11.18;5.18;;;;;;;;;;5092738;28;20392;-86
2021/07/24 05:05:10;;;;;;;6.78;4.63;;;;;;;;;;5093177;28;20023;-85
2021/07/24 05:07:35;;;;;;;12.93;4.53;;;;;;;;;;5093205;28;20115;-83
2021/07/24 05:10:07;;;;;;;7.82;4.38;;;;;;;;;;5093094;28;20032;-83
2021/07/24 05:12:33;;;;;;;13.80;4.93;;;;;;;;;;5092905;28;20075;-82
2021/07/24 05:14:58;;;;;;;7.93;4.10;;;;;;;;;;5093159;28;20488;-83
2021/07/24 05:17:23;;;;;;;8.68;3.95;;;;;;;;;;5092959;28;20024;-83
2021/07/24 05:19:49;;;;;;;11.30;4.18;;;;;;;;;;5092299;28;20510;-83
2021/07/24 05:22:14;;;;;;;10.10;4.95;;;;;;;;;;5092760;28;20036;-83
2021/07/24 05:24:44;;;;;;;13.00;5.40;;;;;;;;;;5095585;28;20491;-82
2021/07/24 05:27:09;;;;;;;7.97;4.07;;;;;;;;;;5097163;28;20023;-82
2021/07/24 05:29:35;;;;;;;12.48;5.82;;;;;;;;;;5095740;28;20385;-83
2021/07/24 05:32:00;;;;;;;8.45;4.53;;;;;;;;;;5096995;28;20020;-82
2021/07/24 05:34:25;;;;;;;10.35;4.55;;;;;;;;;;5096744;28;20032;-83
2021/07/24 05:36:52;;;;;;;8.35;4.82;;;;;;;;;;5096813;28;20032;-83
2021/07/24 05:39:17;;;;;;;9.55;4.60;;;;;;;;;;5095257;28;20028;-82
2021/07/24 05:41:42;;;;;;;8.55;5.03;;;;;;;;;;5096562;28;20076;-86
2021/07/24 05:44:10;;;;;;;8.82;4.65;;;;;;;;;;5096706;28;20480;-83
2021/07/24 05:46:35;;;;;;;12.30;4.93;;;;;;;;;;5096759;28;20101;-83
2021/07/24 05:49:00;;;;;;;11.05;4.82;;;;;;;;;;5096394;28;20448;-82
2021/07/24 05:51:26;;;;;;;6.75;4.45;;;;;;;;;;5096780;28;20040;-84
2021/07/24 05:53:51;;;;;;;8.55;4.55;;;;;;;;;;5096294;28;20044;-83
2021/07/24 05:56:17;;;;;;;10.63;4.43;;;;;;;;;;5096572;28;20031;-82
2021/07/24 05:58:42;;;;;;;9.65;4.70;;;;;;;;;;5095793;28;20396;-83
2021/07/24 06:01:08;;;;;;;8.85;4.80;;;;;;;;;;5093978;28;20392;-83
2021/07/24 06:03:33;;;;;;;6.90;5.03;;;;;;;;;;5096348;28;20103;-83
2021/07/24 06:06:00;;;;;;;6.82;5.03;;;;;;;;;;5096170;28;20392;-82
2021/07/24 06:08:26;;;;;;;7.47;5.10;;;;;;;;;;5096159;28;20430;-83
2021/07/24 06:10:51;;;;;;;8.30;5.38;;;;;;;;;;5096000;28;20031;-83
2021/07/24 06:13:18;;;;;;;14.60;6.28;;;;;;;;;;5076769;28;20040;-82
2021/07/24 06:15:43;;;;;;;28.80;8.05;;;;;;;;;;5075345;28;20028;-82
2021/07/24 06:18:08;;;;;;;17.13;7.50;;;;;;;;;;5075696;28;20021;-82
2021/07/24 06:20:37;;;;;;;18.35;7.97;;;;;;;;;;5075443;28;20127;-81
2021/07/24 06:23:03;;;;;;;18.73;7.93;;;;;;;;;;5075627;28;20135;-82
2021/07/24 06:25:28;;;;;;;18.27;7.78;;;;;;;;;;5075581;28;20516;-82
2021/07/24 06:27:54;;;;;;;11.07;6.82;;;;;;;;;;5075554;28;20037;-82
2021/07/24 06:30:19;;;;;;;15.75;7.32;;;;;;;;;;5074693;28;20369;-83
2021/07/24 06:32:44;;;;;;;14.23;6.60;;;;;;;;;;5075203;28;20017;-84
2021/07/24 06:35:10;;;;;;;12.20;6.75;;;;;;;;;;5074221;28;20373;-82
2021/07/24 06:37:35;;;;;;;14.40;6.30;;;;;;;;;;5080229;28;20032;-82
2021/07/24 06:40:00;;;;;;;12.35;5.47;;;;;;;;;;5096055;28;20020;-83
2021/07/24 06:42:25;;;;;;;13.68;7.03;;;;;;;;;;5095658;28;20032;-83
2021/07/24 06:44:52;;;;;;;13.32;6.32;;;;;;;;;;5096153;28;20458;-83
2021/07/24 06:47:17;;;;;;;13.73;6.60;;;;;;;;;;5116010;28;20060;-82
2021/07/24 06:49:43;;;;;;;14.05;7.43;;;;;;;;;;5114877;28;20031;-83
2021/07/24 06:52:08;;;;;;;14.15;7.07;;;;;;;;;;5115984;28;20466;-86
2021/07/24 06:54:33;;;;;;;12.50;6.78;;;;;;;;;;5115446;28;20035;-86
2021/07/24 06:56:58;;;;;;;16.65;6.38;;;;;;;;;;5116041;28;20127;-82
2021/07/24 06:59:24;;;;;;;14.00;6.75;;;;;;;;;;5114745;28;20023;-82
2021/07/24 07:01:49;;;;;;;11.48;6.72;;;;;;;;;;5115521;28;20080;-82
2021/07/24 07:04:14;;;;;;;17.38;7.40;;;;;;;;;;5115472;28;20028;-82
2021/07/24 07:06:40;;;;;;;14.65;5.95;;;;;;;;;;5111031;28;20036;-81
2021/07/24 07:09:06;;;;;;;14.38;6.13;;;;;;;;;;5095133;28;20012;-81
2021/07/24 07:11:31;;;;;;;11.50;6.43;;;;;;;;;;5095090;28;20502;-81
2021/07/24 07:13:57;;;;;;;9.50;5.30;;;;;;;;;;5094723;28;20460;-81
2021/07/24 07:16:22;;;;;;;10.20;5.18;;;;;;;;;;5094870;28;20027;-83
2021/07/24 07:18:47;;;;;;;7.65;4.55;;;;;;;;;;5094637;28;20039;-82
2021/07/24 07:21:12;;;;;;;11.15;5.60;;;;;;;;;;5095015;28;20040;-81
2021/07/24 07:23:38;;;;;;;11.45;6.07;;;;;;;;;;5095000;28;20376;-81
2021/07/24 07:26:03;;;;;;;10.50;5.35;;;;;;;;;;5095287;28;20028;-81
2021/07/24 07:28:28;;;;;;;6.70;4.53;;;;;;;;;;5094860;28;20093;-80
2021/07/24 07:30:54;;;;;;;7.95;4.90;;;;;;;;;;5094905;28;20016;-82
2021/07/24 07:33:20;;;;;;;10.93;4.97;;;;;;;;;;5094385;28;20036;-81
2021/07/24 07:35:45;;;;;;;9.80;5.05;;;;;;;;;;5094936;28;20039;-83
2021/07/24 07:38:11;;;;;;;9.63;4.60;;;;;;;;;;5094715;28;20114;-81
2021/07/24 07:40:39;;;;;;;10.18;5.38;;;;;;;;;;5095036;28;20161;-82
2021/07/24 07:43:06;;;;;;;12.82;6.25;;;;;;;;;;5094347;28;20031;-81
2021/07/24 07:45:31;;;;;;;11.00;5.03;;;;;;;;;;5094492;28;20024;-81
2021/07/24 07:47:56;;;;;;;11.07;5.32;;;;;;;;;;5094259;28;20031;-81
2021/07/24 07:50:22;;;;;;;9.93;5.05;;;;;;;;;;5094813;28;20418;-81
2021/07/24 07:52:47;;;;;;;9.90;4.88;;;;;;;;;;5094464;28;20016;-81
2021/07/24 07:55:13;;;;;;;9.02;4.82;;;;;;;;;;5093930;28;20036;-78
2021/07/24 07:57:39;;;;;;;10.90;4.72;;;;;;;;;;5093925;28;20130;-77
2021/07/24 08:00:05;;;;;;;7.68;5.90;;;;;;;;;;5094124;28;20051;-78
2021/07/24 08:02:30;;;;;;;11.27;5.13;;;;;;;;;;5088412;28;20129;-77
2021/07/24 08:04:55;;;;;;;7.72;5.13;;;;;;;;;;5093808;28;20024;-77
2021/07/24 08:07:21;;;;;;;8.48;4.65;;;;;;;;;;5092047;28;20429;-78
2021/07/24 08:09:46;;;;;;;9.90;5.47;;;;;;;;;;5093178;28;20078;-77
2021/07/24 08:12:11;;;;;;;10.55;5.47;;;;;;;;;;5093489;28;20516;-78
2021/07/24 08:14:37;;;;;;;11.10;5.90;;;;;;;;;;5093663;28;20100;-78
2021/07/24 08:17:02;;;;;;;11.63;5.55;;;;;;;;;;5094008;28;20036;-78
2021/07/24 08:19:27;;;;;;;8.60;5.30;;;;;;;;;;5093101;28;20051;-77
2021/07/24 08:21:52;;;;;;;11.10;5.63;;;;;;;;;;5093395;28;20546;-77
2021/07/24 08:24:18;;;;;;;9.32;5.85;;;;;;;;;;5093255;28;20081;-77
2021/07/24 08:26:44;;;;;;;13.85;5.38;;;;;;;;;;5093589;28;20048;-78
2021/07/24 08:29:10;;;;;;;9.05;5.05;;;;;;;;;;5093280;28;20391;-77
2021/07/24 08:31:35;;;;;;;9.20;5.68;;;;;;;;;;5093220;28;20028;-78
2021/07/24 08:34:01;;;;;;;16.58;6.40;;;;;;;;;;5093070;28;20140;-78
2021/07/24 08:36:26;;;;;;;19.95;7.88;;;;;;;;;;5093748;28;20016;-78
2021/07/24 08:38:51;;;;;;;9.85;5.80;;;;;;;;;;5092542;28;20494;-78
2021/07/24 08:41:16;;;;;;;10.85;5.95;;;;;;;;;;5106911;28;20110;-78
2021/07/24 08:43:45;;;;;;;10.07;5.07;;;;;;;;;;5109935;28;20399;-78
2021/07/24 08:46:13;;;;;;;9.40;5.88;;;;;;;;;;5093345;28;20028;-78
2021/07/24 08:48:39;;;;;;;10.43;5.95;;;;;;;;;;5092715;28;20028;-78
2021/07/24 08:51:05;;;;;;;9.75;5.95;;;;;;;;;;5093056;28;20069;-78
2021/07/24 08:53:31;;;;;;;8.20;4.70;;;;;;;;;;5092734;28;20044;-77
2021/07/24 08:56:00;;;;;;;7.55;5.13;;;;;;;;;;5093157;28;20092;-77
2021/07/24 08:58:27;;;;;;;10.00;5.53;;;;;;;;;;5092064;28;20020;-78
2021/07/24 09:00:52;;;;;;;10.48;5.90;;;;;;;;;;5093074;28;20031;-78
2021/07/24 09:03:19;;;;;;;11.05;5.35;;;;;;;;;;5092734;28;20024;-77
2021/07/24 09:05:48;;;;;;;8.60;5.75;;;;;;;;;;5092935;28;20103;-78
2021/07/24 09:08:13;;;;;;;8.57;5.88;;;;;;;;;;5092459;28;20468;-78
2021/07/24 09:10:39;;;;;;;9.05;4.93;;;;;;;;;;5092428;28;20051;-78
2021/07/24 09:13:04;;;;;;;10.18;5.47;;;;;;;;;;5092259;28;20031;-77
2021/07/24 09:15:29;;;;;;;8.25;5.68;;;;;;;;;;5092465;28;20039;-78
2021/07/24 09:17:54;;;;;;;7.07;5.15;;;;;;;;;;5092809;28;20032;-78
2021/07/24 09:20:26;;;;;;;10.63;5.43;;;;;;;;;;5092472;28;20048;-78
2021/07/24 09:22:53;;;;;;;9.50;5.43;;;;;;;;;;5092945;28;20376;-77
2021/07/24 09:25:19;;;;;;;10.13;5.57;;;;;;;;;;5092553;28;20073;-78
2021/07/24 09:27:45;;;;;;;9.73;5.13;;;;;;;;;;5092873;28;20020;-78
2021/07/24 09:30:29;;;;;;;8.77;5.30;;;;;;;;;;5092422;28;20028;-78
2021/07/24 09:33:09;;;;;;;10.30;5.55;;;;;;;;;;5092647;28;20090;-77
2021/07/24 09:35:37;;;;;;;9.90;5.50;;;;;;;;;;5092743;28;20044;-78
2021/07/24 09:38:03;;;;;;;11.73;5.93;;;;;;;;;;5092708;28;20028;-77
2021/07/24 09:40:29;;;;;;;9.20;5.47;;;;;;;;;;5092849;28;20032;-78
2021/07/24 09:42:54;;;;;;;11.57;6.18;;;;;;;;;;5092467;28;20452;-77
2021/07/24 09:45:20;;;;;;;10.10;6.05;;;;;;;;;;5092622;28;20028;-78
2021/07/24 09:47:45;;;;;;;14.13;6.13;;;;;;;;;;5092942;28;20518;-78
2021/07/24 09:50:12;;;;;;;11.30;5.70;;;;;;;;;;5092631;28;20055;-77
2021/07/24 09:52:43;;;;;;;12.57;6.45;;;;;;;;;;5092621;28;20024;-78
2021/07/24 09:55:16;;;;;;;11.45;6.00;;;;;;;;;;5092307;28;20069;-78
2021/07/24 09:57:41;;;;;;;12.45;6.57;;;;;;;;;;5092857;28;20651;-78
2021/07/24 10:00:19;;;;;;;9.45;5.22;;;;;;;;;;5092244;28;20059;-78
2021/07/24 10:02:45;;;;;;;9.80;5.40;;;;;;;;;;5092281;28;20465;-78
2021/07/24 10:05:10;;;;;;;10.10;5.75;;;;;;;;;;5092052;28;20077;-78
2021/07/24 10:07:36;;;;;;;10.25;5.35;;;;;;;;;;5092379;28;20027;-78
2021/07/24 10:10:01;;;;;;;9.38;6.22;;;;;;;;;;5092681;28;20034;-78
2021/07/24 10:12:27;;;;;;;8.38;5.57;;;;;;;;;;5103116;28;20028;-78
2021/07/24 10:14:52;;;;;;;11.07;5.63;;;;;;;;;;5093696;28;20032;-78
2021/07/24 10:17:17;;;;;;;8.38;5.70;;;;;;;;;;5091572;28;20078;-78
2021/07/24 10:19:43;;;;;;;10.77;6.47;;;;;;;;;;5092971;28;20511;-77
2021/07/24 10:22:08;;;;;;;7.35;5.40;;;;;;;;;;5100164;28;20019;-78
2021/07/24 10:24:33;;;;;;;12.23;5.70;;;;;;;;;;5103326;28;20501;-78
2021/07/24 10:27:12;;;;;;;8.18;5.43;;;;;;;;;;5104128;28;20042;-78
2021/07/24 10:29:58;;;;;;;10.75;6.40;;;;;;;;;;5096875;28;20028;-79
2021/07/24 10:32:23;;;;;;;;;;;;;;;;;;5085569;28;20062;-78
2021/07/24 10:34:49;;;;;;;14.37;6.23;;;;;;;;;;5103281;28;19959;-78
2021/07/24 10:37:33;;;;;;;12.40;5.78;;;;;;;;;;5106004;28;20039;-78
2021/07/24 10:40:21;;;;;;;11.48;6.25;;;;;;;;;;5094079;28;20040;-79
2021/07/24 10:42:53;;;;;;;11.50;6.47;;;;;;;;;;5093275;28;20106;-78
2021/07/24 10:45:31;;;;;;;9.63;6.10;;;;;;;;;;5092582;28;20032;-78
2021/07/24 10:48:14;;;;;;;15.35;6.55;;;;;;;;;;5092769;28;20063;-78
2021/07/24 10:50:54;;;;;;;13.15;5.75;;;;;;;;;;5093375;28;20046;-78
2021/07/24 10:53:21;;;;;;;8.85;5.68;;;;;;;;;;5092873;28;20040;-78
2021/07/24 10:55:47;;;;;;;10.07;6.25;;;;;;;;;;5094298;28;20035;-78
2021/07/24 10:58:13;;;;;;;14.75;6.55;;;;;;;;;;5095073;28;20499;-78
2021/07/24 11:00:54;;;;;;;11.10;6.60;;;;;;;;;;5095037;28;20043;-78
2021/07/24 11:03:31;;;;;;;11.40;6.30;;;;;;;;;;5094358;28;20032;-78
2021/07/24 11:05:56;;;;;;;9.15;5.95;;;;;;;;;;5093558;28;20395;-78
2021/07/24 11:08:54;;;;;;;8.70;5.55;;;;;;;;;;5095118;28;20028;-78
2021/07/24 11:11:34;;;;;;;13.73;6.38;;;;;;;;;;5060182;28;20104;-77
2021/07/24 11:14:00;;;;;;;9.80;6.03;;;;;;;;;;5094983;28;20169;-78
2021/07/24 11:16:45;;;;;;;12.95;6.20;;;;;;;;;;5094762;28;20709;-78
2021/07/24 11:19:17;;;;;;;11.93;5.97;;;;;;;;;;5094610;28;20036;-78
2021/07/24 11:22:21;;;;;;;10.65;5.57;;;;;;;;;;5094172;28;20101;-78
2021/07/24 11:24:49;;;;;;;11.45;5.68;;;;;;;;;;5012344;28;20524;-78
2021/07/24 11:27:15;;;;;;;7.95;5.78;;;;;;;;;;5012128;28;20034;-78
2021/07/24 11:29:40;;;;;;;9.57;5.45;;;;;;;;;;5051175;28;20059;-78
2021/07/24 11:32:06;;;;;;;11.73;5.68;;;;;;;;;;5094646;28;20051;-78
2021/07/24 11:34:32;;;;;;;9.57;6.00;;;;;;;;;;5094502;28;20104;-78
2021/07/24 11:36:58;;;;;;;9.40;5.90;;;;;;;;;;5094465;28;20047;-78
2021/07/24 11:39:31;;;;;;;10.63;5.30;;;;;;;;;;5094278;28;20188;-78
2021/07/24 11:41:56;;;;;;;8.60;5.53;;;;;;;;;;5094619;28;20161;-78
2021/07/24 11:44:29;;;;;;;8.55;5.85;;;;;;;;;;5094077;28;20482;-78
2021/07/24 11:46:58;;;;;;;9.38;5.22;;;;;;;;;;5094215;28;20024;-78
2021/07/24 11:49:24;;;;;;;10.52;5.88;;;;;;;;;;5094071;28;20024;-78
2021/07/24 11:51:49;;;;;;;11.50;6.25;;;;;;;;;;5094367;28;20031;-78
2021/07/24 11:54:14;;;;;;;12.65;6.72;;;;;;;;;;5093776;28;20039;-79
2021/07/24 11:56:40;;;;;;;13.85;6.65;;;;;;;;;;5093824;28;20131;-78
2021/07/24 11:59:05;;;;;;;10.63;5.40;;;;;;;;;;5094108;28;20036;-78
2021/07/24 12:01:30;;;;;;;9.57;6.28;;;;;;;;;;5094203;28;20027;-78
2021/07/24 12:04:03;;;;;;;9.25;5.13;;;;;;;;;;5094006;28;20047;-78
2021/07/24 12:06:28;;;;;;;13.35;5.30;;;;;;;;;;5093656;28;20034;-78
2021/07/24 12:08:54;;;;;;;10.82;6.05;;;;;;;;;;5093951;28;20107;-78
2021/07/24 12:11:20;;;;;;;9.25;5.93;;;;;;;;;;5093812;28;20476;-78
2021/07/24 12:13:45;;;;;;;10.27;5.78;;;;;;;;;;5093681;28;20422;-78
2021/07/24 12:16:14;;;;;;;8.25;5.88;;;;;;;;;;5093056;28;20494;-78
2021/07/24 12:18:47;;;;;;;11.07;6.05;;;;;;;;;;5093885;28;20036;-78
2021/07/24 12:21:19;;;;;;;11.05;6.28;;;;;;;;;;5093577;28;20048;-78
2021/07/24 12:23:57;;;;;;;10.30;6.07;;;;;;;;;;5093295;28;20032;-78
2021/07/24 12:26:23;;;;;;;9.82;5.90;;;;;;;;;;5092920;28;20070;-78
2021/07/24 12:28:49;;;;;;;11.05;6.38;;;;;;;;;;5093326;28;20032;-78
2021/07/24 12:31:14;;;;;;;11.13;5.95;;;;;;;;;;5093164;28;20027;-78
2021/07/24 12:33:59;;;;;;;11.05;7.15;;;;;;;;;;5093143;28;20489;-78
2021/07/24 12:36:25;;;;;;;10.90;6.22;;;;;;;;;;5092980;28;20518;-78
2021/07/24 12:38:51;;;;;;;12.02;5.60;;;;;;;;;;5093438;28;20032;-78
2021/07/24 12:41:16;;;;;;;11.93;6.10;;;;;;;;;;5092983;28;20032;-78
2021/07/24 12:43:59;;;;;;;12.45;6.20;;;;;;;;;;5093325;28;20031;-78
2021/07/24 12:46:25;;;;;;;10.15;5.50;;;;;;;;;;5093088;28;20024;-78
2021/07/24 12:48:52;;;;;;;13.07;7.00;;;;;;;;;;5092839;28;20138;-79
2021/07/24 12:51:24;;;;;;;13.40;7.00;;;;;;;;;;5092709;28;20076;-78
2021/07/24 12:53:52;;;;;;;12.73;6.53;;;;;;;;;;5092978;28;20032;-78
2021/07/24 12:56:20;;;;;;;12.55;6.90;;;;;;;;;;5093089;28;20036;-78
2021/07/24 12:58:46;;;;;;;13.88;6.78;;;;;;;;;;5092790;28;20020;-78
2021/07/24 13:01:15;;;;;;;9.35;6.25;;;;;;;;;;5093064;28;20034;-78
2021/07/24 13:03:41;;;;;;;12.15;6.22;;;;;;;;;;5093130;28;20024;-78
2021/07/24 13:06:07;;;;;;;10.30;5.60;;;;;;;;;;5092936;28;20111;-78
2021/07/24 13:08:32;;;;;;;8.50;5.22;;;;;;;;;;5091950;28;20540;-78
2021/07/24 13:10:58;;;;;;;9.27;6.30;;;;;;;;;;5092880;28;20056;-78
2021/07/24 13:13:23;;;;;;;8.82;6.18;;;;;;;;;;5092826;28;20099;-78
2021/07/24 13:15:49;;;;;;;12.13;7.45;;;;;;;;;;5093115;28;20497;-78
2021/07/24 13:18:14;;;;;;;16.30;9.52;;;;;;;;;;5092503;28;20049;-78
2021/07/24 13:20:39;;;;;;;17.92;10.73;;;;;;;;;;5092660;28;20056;-78
2021/07/24 13:23:05;;;;;;;15.43;9.85;;;;;;;;;;5093029;28;20028;-78
2021/07/24 13:30:43;;;;;;;12.98;9.50;;;;;;;;;;5092694;28;20061;-78
2021/07/24 13:33:08;;;;;;;12.43;7.55;;;;;;;;;;5092919;28;20040;-78
2021/07/24 13:35:34;;;;;;;13.70;9.60;;;;;;;;;;5092204;28;20043;-78
2021/07/24 13:37:59;;;;;;;11.30;7.22;;;;;;;;;;5092650;28;20042;-78
2021/07/24 13:40:24;;;;;;;12.32;8.63;;;;;;;;;;5092680;28;20024;-78
2021/07/24 13:42:50;;;;;;;15.27;9.75;;;;;;;;;;5092654;28;20098;-78
2021/07/24 13:45:15;;;;;;;11.32;8.82;;;;;;;;;;5094165;28;20415;-78
2021/07/24 13:47:40;;;;;;;12.63;9.80;;;;;;;;;;5096534;28;20039;-77
2021/07/24 13:50:07;;;;;;;15.05;9.07;;;;;;;;;;5096629;28;20032;-77
2021/07/24 13:52:33;;;;;;;13.70;9.38;;;;;;;;;;5096429;28;20456;-78
2021/07/24 13:55:01;;;;;;;15.32;9.40;;;;;;;;;;5096139;28;20036;-78
2021/07/24 13:57:27;;;;;;;13.05;8.82;;;;;;;;;;5096557;28;20055;-78
2021/07/24 13:59:52;;;;;;;14.35;9.38;;;;;;;;;;5096217;28;20016;-78
2021/07/24 14:02:17;;;;;;;12.80;8.77;;;;;;;;;;5096427;28;20547;-78
2021/07/24 14:04:43;;;;;;;12.35;8.70;;;;;;;;;;5095941;28;20073;-78
2021/07/24 14:07:09;;;;;;;13.57;9.23;;;;;;;;;;5096350;28;20020;-78
2021/07/24 14:09:34;;;;;;;10.73;8.20;;;;;;;;;;5095707;28;20480;-78
2021/07/24 14:12:00;;;;;;;13.57;8.30;;;;;;;;;;5096011;28;20040;-78
2021/07/24 14:14:25;;;;;;;13.65;8.93;;;;;;;;;;5096172;28;20440;-78
2021/07/24 14:16:50;;;;;;;13.32;9.88;;;;;;;;;;5096128;28;20024;-78
2021/07/24 14:19:16;;;;;;;12.50;8.85;;;;;;;;;;5095920;28;20020;-78
2021/07/24 14:21:41;;;;;;;15.50;10.50;;;;;;;;;;5096221;28;20063;-78
2021/07/24 14:24:07;;;;;;;15.55;9.93;;;;;;;;;;5095712;28;20026;-78
2021/07/24 14:26:33;;;;;;;18.42;9.88;;;;;;;;;;5094948;28;20027;-78
2021/07/24 14:28:58;;;;;;;17.25;9.48;;;;;;;;;;5095842;28;20340;-78
2021/07/24 14:31:23;;;;;;;19.55;9.80;;;;;;;;;;5095564;28;20032;-78
2021/07/24 14:33:48;;;;;;;17.70;9.80;;;;;;;;;;5095894;28;20032;-78
2021/07/24 14:36:14;;;;;;;16.55;9.93;;;;;;;;;;5095557;28;20531;-78
2021/07/24 14:38:40;;;;;;;13.32;9.63;;;;;;;;;;5095309;28;20043;-78
2021/07/24 14:41:07;;;;;;;14.80;10.43;;;;;;;;;;5095251;28;20119;-78